PST,Max TemperatureF,Mean TemperatureF,Min TemperatureF,Max Dew PointF,MeanDew PointF,Min DewpointF,Max Humidity, Mean Humidity, Min Humidity, Max Sea Level PressureIn, Mean Sea Level PressureIn, Min Sea Level PressureIn, Max VisibilityMiles, Mean VisibilityMiles, Min VisibilityMiles, Max Wind SpeedMPH, Mean Wind SpeedMPH, Max Gust SpeedMPH,PrecipitationIn, CloudCover, Events, WindDirDegrees
2013-2-1,68,50,32,46,37,30,100,74,48,30.20,30.17,30.09,10,5,0,8,2,12,0.00,1,Fog,277
2013-2-2,60,49,37,48,41,36,96,78,60,30.30,30.24,30.20,8,3,0,8,2,12,0.00,3,Fog,166
2013-2-3,62,50,37,47,42,37,100,78,55,30.25,30.19,30.12,10,4,0,8,2,12,0.00,4,Fog,164
2013-2-4,56,47,37,47,42,36,100,86,72,30.17,30.12,30.06,8,4,0,9,2,12,0.00,7,Fog,159
2013-2-5,64,54,43,46,43,37,93,73,52,30.14,30.08,30.03,10,8,3,14,4,18,0.00,5,,288
2013-2-6,61,47,32,42,36,30,96,71,46,30.19,30.14,30.08,10,9,2,10,2,12,0.00,1,Fog,235
2013-2-7,56,47,37,45,39,31,96,67,38,30.14,30.07,29.98,10,8,2,16,5,21,0.09,6,Fog-Rain,252
2013-2-8,60,46,31,36,33,30,100,67,33,30.01,29.97,29.92,10,6,0,18,6,24,0.00,2,Fog,320
2013-2-9,61,48,34,41,29,23,82,53,24,30.09,30.04,30.01,10,10,10,13,5,,0.00,0,,332
2013-2-10,64,46,28,37,33,25,92,61,30,30.11,30.06,29.99,10,10,10,10,2,13,0.00,1,,229
2013-2-11,68,50,31,39,34,27,92,58,24,30.22,30.14,30.08,10,8,0,13,3,15,0.00,0,Fog,267
2013-2-12,63,47,31,43,36,30,100,72,43,30.35,30.28,30.22,10,5,0,9,2,13,0.00,2,Fog,189
2013-2-13,67,49,31,44,36,28,100,71,42,30.33,30.28,30.19,10,5,0,10,2,13,0.00,1,Fog,164
2013-2-14,71,53,35,50,38,34,100,74,48,30.25,30.21,30.14,10,3,0,12,3,14,0.00,1,Fog,160
2013-2-15,72,53,33,44,37,30,100,67,33,30.25,30.22,30.19,10,5,0,10,2,13,0.00,0,Fog,259
2013-2-16,72,55,38,44,40,36,92,64,35,30.23,30.11,30.04,10,7,0,10,3,13,0.00,2,Fog,178
2013-2-17,65,51,36,43,38,35,100,67,34,30.05,30.01,29.95,10,5,0,13,2,14,0.00,1,Fog,171
2013-2-18,54,44,34,43,38,34,100,80,59,30.02,29.97,29.90,10,6,0,13,3,16,0.00,6,Fog,272
2013-2-19,52,43,34,41,35,29,92,71,50,29.94,29.82,29.72,10,9,4,20,7,25,0.17,5,Fog-Rain,283
2013-2-20,60,44,28,35,32,26,92,64,36,30.04,29.96,29.85,10,10,10,13,6,22,0.00,1,,327
2013-2-21,64,52,39,37,33,24,79,51,23,30.15,30.10,30.04,10,10,10,16,5,22,0.00,1,,349
2013-2-22,64,48,32,44,38,31,92,63,34,30.23,30.19,30.14,10,10,10,10,3,16,0.00,2,,194
2013-2-23,60,52,43,42,32,27,86,57,28,30.25,30.20,30.15,10,10,10,17,9,23,0.00,2,,331
2013-2-24,68,53,37,37,31,22,79,48,17,30.25,30.20,30.13,10,10,10,14,6,17,0.00,1,,4
2013-2-25,69,51,33,42,33,22,92,55,17,30.25,30.20,30.12,10,10,9,18,4,26,0.00,1,,336
2013-2-26,72,54,36,39,32,23,85,52,19,30.21,30.17,30.11,10,10,10,13,6,15,0.00,1,,358
2013-2-27,70,50,30,47,37,29,96,63,29,30.34,30.26,30.19,10,10,9,12,2,15,T,2,Rain,175
2013-2-28,71,57,43,53,47,42,100,74,47,30.42,30.38,30.34,10,8,0,12,2,15,T,2,Fog,163